sensor_id;sensor_type;location;lat;lon;timestamp;pressure;altitude;pressure_sealevel;temperature;humidity
62600;BME280;48671;48.922;2.346;2022-12-29T00:02:04;100439.47;;;12.31;77.08
62600;BME280;48671;48.922;2.346;2022-12-29T00:04:30;100429.88;;;12.32;77.37
62600;BME280;48671;48.922;2.346;2022-12-29T00:06:56;100422.03;;;12.32;77.53
62600;BME280;48671;48.922;2.346;2022-12-29T00:09:21;100417.91;;;12.28;77.31
62600;BME280;48671;48.922;2.346;2022-12-29T00:11:47;100409.16;;;12.29;77.36
62600;BME280;48671;48.922;2.346;2022-12-29T00:14:12;100405.56;;;12.31;77.10
62600;BME280;48671;48.922;2.346;2022-12-29T00:16:57;100409.09;;;12.30;76.79
62600;BME280;48671;48.922;2.346;2022-12-29T00:19:22;100417.50;;;12.35;76.78
62600;BME280;48671;48.922;2.346;2022-12-29T00:22:09;100402.69;;;12.36;76.69
62600;BME280;48671;48.922;2.346;2022-12-29T00:24:53;100403.31;;;12.41;76.77
62600;BME280;48671;48.922;2.346;2022-12-29T00:27:34;100384.22;;;12.40;76.69
62600;BME280;48671;48.922;2.346;2022-12-29T00:30:20;100394.50;;;12.44;76.36
62600;BME280;48671;48.922;2.346;2022-12-29T00:33:11;100390.13;;;12.44;76.63
62600;BME280;48671;48.922;2.346;2022-12-29T00:36:20;100380.66;;;12.41;76.68
62600;BME280;48671;48.922;2.346;2022-12-29T00:38:57;100385.81;;;12.43;77.00
62600;BME280;48671;48.922;2.346;2022-12-29T00:41:43;100376.44;;;12.39;76.71
62600;BME280;48671;48.922;2.346;2022-12-29T00:44:27;100372.00;;;12.41;76.98
62600;BME280;48671;48.922;2.346;2022-12-29T00:46:52;100366.09;;;12.37;77.28
62600;BME280;48671;48.922;2.346;2022-12-29T00:49:17;100378.47;;;12.34;77.73
62600;BME280;48671;48.922;2.346;2022-12-29T00:51:57;100398.19;;;12.39;77.80
62600;BME280;48671;48.922;2.346;2022-12-29T00:54:22;100411.28;;;12.38;77.96
62600;BME280;48671;48.922;2.346;2022-12-29T00:56:49;100402.69;;;12.36;78.18
62600;BME280;48671;48.922;2.346;2022-12-29T00:59:15;100402.00;;;12.32;78.78
62600;BME280;48671;48.922;2.346;2022-12-29T01:01:41;100397.97;;;12.27;78.94
62600;BME280;48671;48.922;2.346;2022-12-29T01:04:07;100400.44;;;12.30;79.28
62600;BME280;48671;48.922;2.346;2022-12-29T01:06:35;100405.94;;;12.24;79.93
62600;BME280;48671;48.922;2.346;2022-12-29T01:09:01;100382.94;;;12.14;80.23
62600;BME280;48671;48.922;2.346;2022-12-29T01:11:45;100390.50;;;12.19;79.92
62600;BME280;48671;48.922;2.346;2022-12-29T01:14:10;100387.06;;;12.18;80.23
62600;BME280;48671;48.922;2.346;2022-12-29T01:16:35;100388.94;;;12.16;80.34
62600;BME280;48671;48.922;2.346;2022-12-29T01:19:04;100386.31;;;12.16;79.81
62600;BME280;48671;48.922;2.346;2022-12-29T01:21:29;100388.06;;;12.16;79.31
62600;BME280;48671;48.922;2.346;2022-12-29T01:23:55;100389.75;;;12.17;79.65
62600;BME280;48671;48.922;2.346;2022-12-29T01:26:20;100391.53;;;12.16;79.73
62600;BME280;48671;48.922;2.346;2022-12-29T01:28:46;100388.75;;;12.19;79.62
62600;BME280;48671;48.922;2.346;2022-12-29T01:31:13;100390.44;;;12.21;79.59
62600;BME280;48671;48.922;2.346;2022-12-29T01:33:39;100388.69;;;12.21;79.60
62600;BME280;48671;48.922;2.346;2022-12-29T01:36:10;100381.69;;;12.22;79.49
62600;BME280;48671;48.922;2.346;2022-12-29T01:38:36;100377.31;;;12.22;79.66
62600;BME280;48671;48.922;2.346;2022-12-29T01:41:03;100388.53;;;12.24;79.10
62600;BME280;48671;48.922;2.346;2022-12-29T01:46:04;100403.19;;;12.27;79.25
62600;BME280;48671;48.922;2.346;2022-12-29T01:48:36;100398.88;;;12.26;79.11
62600;BME280;48671;48.922;2.346;2022-12-29T01:51:02;100394.53;;;12.26;78.98
62600;BME280;48671;48.922;2.346;2022-12-29T01:53:29;100388.38;;;12.27;77.87
62600;BME280;48671;48.922;2.346;2022-12-29T01:56:04;100397.13;;;12.26;78.07
62600;BME280;48671;48.922;2.346;2022-12-29T01:58:34;100391.19;;;12.23;78.19
62600;BME280;48671;48.922;2.346;2022-12-29T02:01:01;100400.03;;;12.20;78.34
62600;BME280;48671;48.922;2.346;2022-12-29T02:03:28;100396.56;;;12.19;77.85
62600;BME280;48671;48.922;2.346;2022-12-29T02:06:10;100387.31;;;12.14;76.97
62600;BME280;48671;48.922;2.346;2022-12-29T02:08:38;100396.75;;;12.16;77.03
62600;BME280;48671;48.922;2.346;2022-12-29T02:11:05;100386.47;;;12.13;76.63
62600;BME280;48671;48.922;2.346;2022-12-29T02:13:31;100383.19;;;12.10;75.33
62600;BME280;48671;48.922;2.346;2022-12-29T02:16:21;100391.69;;;12.13;75.55
62600;BME280;48671;48.922;2.346;2022-12-29T02:21:55;100427.31;;;12.13;75.46
62600;BME280;48671;48.922;2.346;2022-12-29T02:32:52;100414.94;;;11.82;75.51
62600;BME280;48671;48.922;2.346;2022-12-29T02:41:02;100400.03;;;11.66;75.07
62600;BME280;48671;48.922;2.346;2022-12-29T02:43:50;100385.47;;;11.62;75.85
62600;BME280;48671;48.922;2.346;2022-12-29T02:54:09;100395.91;;;11.62;75.80
62600;BME280;48671;48.922;2.346;2022-12-29T02:56:53;100400.31;;;11.60;76.46
62600;BME280;48671;48.922;2.346;2022-12-29T02:59:19;100397.66;;;11.62;75.87
62600;BME280;48671;48.922;2.346;2022-12-29T03:02:06;100404.63;;;11.61;75.48
62600;BME280;48671;48.922;2.346;2022-12-29T03:07:38;100393.00;;;11.68;75.81
62600;BME280;48671;48.922;2.346;2022-12-29T03:12:46;100384.34;;;11.68;75.66
62600;BME280;48671;48.922;2.346;2022-12-29T03:15:58;100390.38;;;11.68;75.61
62600;BME280;48671;48.922;2.346;2022-12-29T03:21:10;100393.94;;;11.67;74.82
62600;BME280;48671;48.922;2.346;2022-12-29T03:23:38;100388.78;;;11.66;74.91
62600;BME280;48671;48.922;2.346;2022-12-29T03:26:09;100402.59;;;11.68;74.46
62600;BME280;48671;48.922;2.346;2022-12-29T03:28:39;100409.56;;;11.67;74.10
62600;BME280;48671;48.922;2.346;2022-12-29T03:31:08;100403.47;;;11.67;73.94
62600;BME280;48671;48.922;2.346;2022-12-29T03:33:36;100393.28;;;11.62;74.14
62600;BME280;48671;48.922;2.346;2022-12-29T03:36:07;100397.56;;;11.63;74.17
62600;BME280;48671;48.922;2.346;2022-12-29T03:38:40;100400.25;;;11.62;74.13
62600;BME280;48671;48.922;2.346;2022-12-29T03:41:13;100417.44;;;11.66;74.47
62600;BME280;48671;48.922;2.346;2022-12-29T03:43:39;100418.41;;;11.63;74.28
62600;BME280;48671;48.922;2.346;2022-12-29T03:46:05;100414.22;;;11.61;73.83
62600;BME280;48671;48.922;2.346;2022-12-29T03:48:30;100415.06;;;11.61;73.89
62600;BME280;48671;48.922;2.346;2022-12-29T03:50:57;100425.47;;;11.61;73.17
62600;BME280;48671;48.922;2.346;2022-12-29T03:53:23;100410.59;;;11.63;73.80
62600;BME280;48671;48.922;2.346;2022-12-29T03:55:48;100406.41;;;11.61;73.83
62600;BME280;48671;48.922;2.346;2022-12-29T03:58:14;100410.75;;;11.60;73.49
62600;BME280;48671;48.922;2.346;2022-12-29T04:00:39;100418.41;;;11.63;73.44
62600;BME280;48671;48.922;2.346;2022-12-29T04:03:05;100410.53;;;11.65;73.16
62600;BME280;48671;48.922;2.346;2022-12-29T04:05:30;100432.28;;;11.64;72.89
62600;BME280;48671;48.922;2.346;2022-12-29T04:07:56;100427.16;;;11.62;72.76
62600;BME280;48671;48.922;2.346;2022-12-29T04:10:21;100428.09;;;11.61;73.24
62600;BME280;48671;48.922;2.346;2022-12-29T04:12:46;100424.66;;;11.61;72.83
62600;BME280;48671;48.922;2.346;2022-12-29T04:15:12;100428.84;;;11.63;72.98
62600;BME280;48671;48.922;2.346;2022-12-29T04:17:37;100428.00;;;11.63;72.99
62600;BME280;48671;48.922;2.346;2022-12-29T04:20:03;100433.22;;;11.63;73.11
62600;BME280;48671;48.922;2.346;2022-12-29T04:22:47;100438.38;;;11.64;73.20
62600;BME280;48671;48.922;2.346;2022-12-29T04:25:13;100435.06;;;11.61;73.36
62600;BME280;48671;48.922;2.346;2022-12-29T04:27:38;100443.72;;;11.61;73.46
62600;BME280;48671;48.922;2.346;2022-12-29T04:30:04;100454.16;;;11.61;73.56
62600;BME280;48671;48.922;2.346;2022-12-29T04:32:29;100458.44;;;11.62;73.16
62600;BME280;48671;48.922;2.346;2022-12-29T04:34:54;100455.91;;;11.61;73.15
62600;BME280;48671;48.922;2.346;2022-12-29T04:37:20;100452.38;;;11.62;73.36
62600;BME280;48671;48.922;2.346;2022-12-29T04:39:45;100449.78;;;11.62;72.63
62600;BME280;48671;48.922;2.346;2022-12-29T04:42:10;100456.81;;;11.60;73.18
62600;BME280;48671;48.922;2.346;2022-12-29T04:44:36;100465.31;;;11.63;73.27
62600;BME280;48671;48.922;2.346;2022-12-29T04:47:01;100467.31;;;11.58;72.95
62600;BME280;48671;48.922;2.346;2022-12-29T04:49:26;100471.59;;;11.59;73.14
62600;BME280;48671;48.922;2.346;2022-12-29T04:51:51;100470.63;;;11.62;73.09
62600;BME280;48671;48.922;2.346;2022-12-29T04:54:17;100463.66;;;11.62;73.13
62600;BME280;48671;48.922;2.346;2022-12-29T04:56:42;100463.88;;;11.58;73.11
62600;BME280;48671;48.922;2.346;2022-12-29T04:59:07;100456.81;;;11.60;73.21
62600;BME280;48671;48.922;2.346;2022-12-29T05:01:33;100463.66;;;11.62;73.12
62600;BME280;48671;48.922;2.346;2022-12-29T05:03:58;100478.22;;;11.66;73.09
62600;BME280;48671;48.922;2.346;2022-12-29T05:06:23;100472.94;;;11.68;72.92
62600;BME280;48671;48.922;2.346;2022-12-29T05:08:49;100477.47;;;11.64;72.81
62600;BME280;48671;48.922;2.346;2022-12-29T05:11:14;100493.72;;;11.69;72.61
62600;BME280;48671;48.922;2.346;2022-12-29T05:13:39;100485.97;;;11.68;72.45
62600;BME280;48671;48.922;2.346;2022-12-29T05:16:05;100472.09;;;11.67;71.78
62600;BME280;48671;48.922;2.346;2022-12-29T05:18:30;100480.63;;;11.71;72.12
62600;BME280;48671;48.922;2.346;2022-12-29T05:20:55;100466.81;;;11.69;71.75
62600;BME280;48671;48.922;2.346;2022-12-29T05:23:21;100477.22;;;11.69;71.96
62600;BME280;48671;48.922;2.346;2022-12-29T05:25:46;100484.91;;;11.72;71.28
62600;BME280;48671;48.922;2.346;2022-12-29T05:28:12;100483.22;;;11.71;71.84
62600;BME280;48671;48.922;2.346;2022-12-29T05:30:38;100485.88;;;11.69;71.57
62600;BME280;48671;48.922;2.346;2022-12-29T05:33:03;100494.63;;;11.68;71.69
62600;BME280;48671;48.922;2.346;2022-12-29T05:35:31;100493.00;;;11.66;71.29
62600;BME280;48671;48.922;2.346;2022-12-29T05:37:57;100493.94;;;11.65;71.31
62600;BME280;48671;48.922;2.346;2022-12-29T05:40:22;100501.66;;;11.66;71.02
62600;BME280;48671;48.922;2.346;2022-12-29T05:42:47;100494.00;;;11.63;71.50
62600;BME280;48671;48.922;2.346;2022-12-29T05:45:13;100499.34;;;11.60;70.64
62600;BME280;48671;48.922;2.346;2022-12-29T05:47:38;100481.19;;;11.59;70.88
62600;BME280;48671;48.922;2.346;2022-12-29T05:50:04;100507.16;;;11.60;70.83
62600;BME280;48671;48.922;2.346;2022-12-29T05:52:29;100509.75;;;11.60;70.53
62600;BME280;48671;48.922;2.346;2022-12-29T05:54:54;100502.88;;;11.59;70.63
62600;BME280;48671;48.922;2.346;2022-12-29T05:57:20;100504.69;;;11.57;70.23
62600;BME280;48671;48.922;2.346;2022-12-29T05:59:45;100508.38;;;11.53;69.94
62600;BME280;48671;48.922;2.346;2022-12-29T06:02:11;100511.75;;;11.55;70.55
62600;BME280;48671;48.922;2.346;2022-12-29T06:04:36;100510.91;;;11.55;70.41
62600;BME280;48671;48.922;2.346;2022-12-29T06:07:01;100506.75;;;11.51;69.03
62600;BME280;48671;48.922;2.346;2022-12-29T06:09:26;100512.03;;;11.49;69.47
62600;BME280;48671;48.922;2.346;2022-12-29T06:11:52;100533.56;;;11.53;70.20
62600;BME280;48671;48.922;2.346;2022-12-29T06:14:17;100521.53;;;11.50;69.45
62600;BME280;48671;48.922;2.346;2022-12-29T06:16:42;100525.19;;;11.46;69.29
62600;BME280;48671;48.922;2.346;2022-12-29T06:19:08;100522.69;;;11.44;69.62
62600;BME280;48671;48.922;2.346;2022-12-29T06:21:33;100517.47;;;11.44;69.01
62600;BME280;48671;48.922;2.346;2022-12-29T06:23:58;100527.72;;;11.47;69.27
62600;BME280;48671;48.922;2.346;2022-12-29T06:26:24;100551.38;;;11.43;69.05
62600;BME280;48671;48.922;2.346;2022-12-29T06:28:49;100549.84;;;11.39;69.53
62600;BME280;48671;48.922;2.346;2022-12-29T06:31:14;100531.88;;;11.33;69.48
62600;BME280;48671;48.922;2.346;2022-12-29T06:33:40;100545.59;;;11.36;69.52
62600;BME280;48671;48.922;2.346;2022-12-29T06:36:05;100553.28;;;11.39;68.90
62600;BME280;48671;48.922;2.346;2022-12-29T06:38:31;100555.88;;;11.39;69.74
62600;BME280;48671;48.922;2.346;2022-12-29T06:40:56;100556.88;;;11.37;69.33
62600;BME280;48671;48.922;2.346;2022-12-29T06:43:21;100567.28;;;11.37;69.90
62600;BME280;48671;48.922;2.346;2022-12-29T06:45:47;100570.72;;;11.37;69.71
62600;BME280;48671;48.922;2.346;2022-12-29T06:48:12;100576.78;;;11.38;69.35
62600;BME280;48671;48.922;2.346;2022-12-29T06:50:38;100583.00;;;11.35;69.80
62600;BME280;48671;48.922;2.346;2022-12-29T06:53:03;100598.53;;;11.37;69.61
62600;BME280;48671;48.922;2.346;2022-12-29T06:55:28;100596.16;;;11.32;69.64
62600;BME280;48671;48.922;2.346;2022-12-29T06:57:55;100599.50;;;11.34;70.17
62600;BME280;48671;48.922;2.346;2022-12-29T07:00:21;100597.00;;;11.33;69.77
62600;BME280;48671;48.922;2.346;2022-12-29T07:02:47;100603.19;;;11.30;69.76
62600;BME280;48671;48.922;2.346;2022-12-29T07:05:12;100606.56;;;11.32;69.75
62600;BME280;48671;48.922;2.346;2022-12-29T07:07:38;100584.38;;;11.23;69.24
62600;BME280;48671;48.922;2.346;2022-12-29T07:10:04;100600.56;;;11.30;69.85
62600;BME280;48671;48.922;2.346;2022-12-29T07:12:29;100597.22;;;11.28;70.00
62600;BME280;48671;48.922;2.346;2022-12-29T07:14:55;100593.81;;;11.26;69.95
62600;BME280;48671;48.922;2.346;2022-12-29T07:17:20;100598.88;;;11.29;70.00
62600;BME280;48671;48.922;2.346;2022-12-29T07:19:45;100599.81;;;11.28;69.96
62600;BME280;48671;48.922;2.346;2022-12-29T07:22:11;100603.25;;;11.29;69.83
62600;BME280;48671;48.922;2.346;2022-12-29T07:24:36;100615.44;;;11.28;69.90
62600;BME280;48671;48.922;2.346;2022-12-29T07:27:01;100622.63;;;11.21;69.33
62600;BME280;48671;48.922;2.346;2022-12-29T07:29:27;100625.25;;;11.21;69.48
62600;BME280;48671;48.922;2.346;2022-12-29T07:31:52;100616.59;;;11.21;69.64
62600;BME280;48671;48.922;2.346;2022-12-29T07:34:17;100613.13;;;11.20;69.38
62600;BME280;48671;48.922;2.346;2022-12-29T07:36:43;100622.72;;;11.20;69.83
62600;BME280;48671;48.922;2.346;2022-12-29T07:39:08;100624.28;;;11.24;69.00
62600;BME280;48671;48.922;2.346;2022-12-29T07:41:33;100623.56;;;11.20;69.44
62600;BME280;48671;48.922;2.346;2022-12-29T07:43:59;100629.47;;;11.24;69.09
62600;BME280;48671;48.922;2.346;2022-12-29T07:46:25;100642.63;;;11.21;69.18
62600;BME280;48671;48.922;2.346;2022-12-29T07:48:50;100642.72;;;11.19;69.34
62600;BME280;48671;48.922;2.346;2022-12-29T07:51:15;100651.38;;;11.20;68.73
62600;BME280;48671;48.922;2.346;2022-12-29T07:53:41;100644.47;;;11.19;69.23
62600;BME280;48671;48.922;2.346;2022-12-29T07:56:06;100647.97;;;11.18;69.60
62600;BME280;48671;48.922;2.346;2022-12-29T07:58:31;100646.50;;;11.12;69.23
62600;BME280;48671;48.922;2.346;2022-12-29T08:00:57;100667.06;;;11.18;69.03
62600;BME280;48671;48.922;2.346;2022-12-29T08:03:23;100668.03;;;11.16;68.88
62600;BME280;48671;48.922;2.346;2022-12-29T08:05:48;100664.75;;;11.11;69.25
62600;BME280;48671;48.922;2.346;2022-12-29T08:08:14;100671.47;;;11.16;69.11
62600;BME280;48671;48.922;2.346;2022-12-29T08:10:39;100681.81;;;11.18;68.92
62600;BME280;48671;48.922;2.346;2022-12-29T08:13:05;100671.69;;;11.12;69.29
62600;BME280;48671;48.922;2.346;2022-12-29T08:15:30;100682.09;;;11.12;69.18
62600;BME280;48671;48.922;2.346;2022-12-29T08:17:55;100692.22;;;11.18;69.37
62600;BME280;48671;48.922;2.346;2022-12-29T08:20:21;100687.81;;;11.20;68.88
62600;BME280;48671;48.922;2.346;2022-12-29T08:22:46;100689.50;;;11.21;68.58
62600;BME280;48671;48.922;2.346;2022-12-29T08:25:11;100703.31;;;11.23;68.53
62600;BME280;48671;48.922;2.346;2022-12-29T08:27:37;100691.34;;;11.19;68.63
62600;BME280;48671;48.922;2.346;2022-12-29T08:30:03;100694.00;;;11.17;68.49
62600;BME280;48671;48.922;2.346;2022-12-29T08:32:28;100702.53;;;11.21;68.76
62600;BME280;48671;48.922;2.346;2022-12-29T08:34:54;100710.47;;;11.18;68.15
62600;BME280;48671;48.922;2.346;2022-12-29T08:37:19;100713.03;;;11.19;68.61
62600;BME280;48671;48.922;2.346;2022-12-29T08:39:45;100715.03;;;11.13;67.90
62600;BME280;48671;48.922;2.346;2022-12-29T08:42:10;100713.06;;;11.18;68.63
62600;BME280;48671;48.922;2.346;2022-12-29T08:44:35;100725.25;;;11.17;68.53
62600;BME280;48671;48.922;2.346;2022-12-29T08:47:01;100721.88;;;11.15;68.23
62600;BME280;48671;48.922;2.346;2022-12-29T08:49:26;100735.66;;;11.17;68.26
62600;BME280;48671;48.922;2.346;2022-12-29T08:51:51;100731.38;;;11.16;68.19
62600;BME280;48671;48.922;2.346;2022-12-29T08:54:17;100744.31;;;11.18;67.86
62600;BME280;48671;48.922;2.346;2022-12-29T08:56:42;100747.00;;;11.16;68.16
62600;BME280;48671;48.922;2.346;2022-12-29T08:59:07;100744.31;;;11.18;68.17
62600;BME280;48671;48.922;2.346;2022-12-29T09:01:33;100743.47;;;11.17;68.46
62600;BME280;48671;48.922;2.346;2022-12-29T09:04:01;100753.13;;;11.15;67.72
62600;BME280;48671;48.922;2.346;2022-12-29T09:06:26;100754.69;;;11.19;68.17
62600;BME280;48671;48.922;2.346;2022-12-29T09:08:53;100751.28;;;11.17;67.61
62600;BME280;48671;48.922;2.346;2022-12-29T09:11:21;100752.22;;;11.16;67.60
62600;BME280;48671;48.922;2.346;2022-12-29T09:13:47;100757.28;;;11.19;68.23
62600;BME280;48671;48.922;2.346;2022-12-29T09:16:13;100763.16;;;11.24;67.63
62600;BME280;48671;48.922;2.346;2022-12-29T09:18:38;100762.13;;;11.29;68.01
62600;BME280;48671;48.922;2.346;2022-12-29T09:21:06;100766.34;;;11.31;67.65
62600;BME280;48671;48.922;2.346;2022-12-29T09:23:32;100764.50;;;11.35;67.97
62600;BME280;48671;48.922;2.346;2022-12-29T09:25:58;100774.00;;;11.36;67.49
62600;BME280;48671;48.922;2.346;2022-12-29T09:28:24;100778.22;;;11.38;67.84
62600;BME280;48671;48.922;2.346;2022-12-29T09:30:49;100780.72;;;11.41;67.69
62600;BME280;48671;48.922;2.346;2022-12-29T09:33:15;100785.06;;;11.41;67.84
62600;BME280;48671;48.922;2.346;2022-12-29T09:35:48;100788.47;;;11.43;67.56
62600;BME280;48671;48.922;2.346;2022-12-29T09:38:14;100788.25;;;11.47;67.01
62600;BME280;48671;48.922;2.346;2022-12-29T09:40:41;100795.91;;;11.52;66.32
62600;BME280;48671;48.922;2.346;2022-12-29T09:45:47;100794.81;;;11.58;66.48
62600;BME280;48671;48.922;2.346;2022-12-29T09:48:25;100796.81;;;11.71;66.40
62600;BME280;48671;48.922;2.346;2022-12-29T09:50:57;100795.66;;;11.79;66.31
62600;BME280;48671;48.922;2.346;2022-12-29T09:55:58;100798.13;;;11.82;65.97
62600;BME280;48671;48.922;2.346;2022-12-29T09:59:24;100817.78;;;11.90;65.80
62600;BME280;48671;48.922;2.346;2022-12-29T10:03:58;100823.84;;;11.91;64.76
62600;BME280;48671;48.922;2.346;2022-12-29T10:23:18;100815.44;;;11.84;63.59
62600;BME280;48671;48.922;2.346;2022-12-29T10:25:47;100812.84;;;11.84;64.62
62600;BME280;48671;48.922;2.346;2022-12-29T10:28:20;100817.56;;;11.75;64.50
62600;BME280;48671;48.922;2.346;2022-12-29T10:30:48;100817.56;;;11.75;64.25
62600;BME280;48671;48.922;2.346;2022-12-29T10:33:18;100826.25;;;11.73;64.04
62600;BME280;48671;48.922;2.346;2022-12-29T10:35:46;100820.47;;;11.67;64.02
62600;BME280;48671;48.922;2.346;2022-12-29T10:38:28;100813.44;;;11.69;63.34
62600;BME280;48671;48.922;2.346;2022-12-29T10:41:05;100809.72;;;11.75;64.43
62600;BME280;48671;48.922;2.346;2022-12-29T10:43:42;100813.09;;;11.77;64.12
62600;BME280;48671;48.922;2.346;2022-12-29T10:46:14;100811.22;;;11.80;64.04
62600;BME280;48671;48.922;2.346;2022-12-29T10:48:41;100822.50;;;11.81;63.83
62600;BME280;48671;48.922;2.346;2022-12-29T10:51:11;100812.56;;;11.90;62.61
62600;BME280;48671;48.922;2.346;2022-12-29T10:53:47;100809.69;;;12.17;62.96
62600;BME280;48671;48.922;2.346;2022-12-29T10:56:27;100805.97;;;12.41;62.68
62600;BME280;48671;48.922;2.346;2022-12-29T10:58:58;100805.63;;;12.68;61.81
62600;BME280;48671;48.922;2.346;2022-12-29T11:01:32;100801.84;;;12.75;61.16
62600;BME280;48671;48.922;2.346;2022-12-29T11:04:08;100810.81;;;12.70;60.05
62600;BME280;48671;48.922;2.346;2022-12-29T11:06:37;100809.25;;;12.65;60.29
62600;BME280;48671;48.922;2.346;2022-12-29T11:09:13;100822.59;;;12.59;60.64
62600;BME280;48671;48.922;2.346;2022-12-29T11:11:40;100824.94;;;12.45;60.91
62600;BME280;48671;48.922;2.346;2022-12-29T11:16:39;100813.19;;;12.36;60.53
62600;BME280;48671;48.922;2.346;2022-12-29T11:19:21;100820.72;;;12.61;60.20
62600;BME280;48671;48.922;2.346;2022-12-29T11:21:48;100808.47;;;12.63;60.77
62600;BME280;48671;48.922;2.346;2022-12-29T11:24:31;100812.06;;;12.61;61.05
62600;BME280;48671;48.922;2.346;2022-12-29T11:27:23;100819.19;;;12.57;60.54
62600;BME280;48671;48.922;2.346;2022-12-29T11:29:51;100819.19;;;12.57;59.94
62600;BME280;48671;48.922;2.346;2022-12-29T11:32:19;100814.94;;;12.55;60.37
62600;BME280;48671;48.922;2.346;2022-12-29T11:34:45;100811.50;;;12.54;58.35
62600;BME280;48671;48.922;2.346;2022-12-29T11:37:11;100821.16;;;12.52;58.94
62600;BME280;48671;48.922;2.346;2022-12-29T11:45:23;100825.53;;;12.52;58.99
62600;BME280;48671;48.922;2.346;2022-12-29T11:47:56;100829.06;;;12.51;59.76
62600;BME280;48671;48.922;2.346;2022-12-29T11:50:34;100819.72;;;12.45;59.97
62600;BME280;48671;48.922;2.346;2022-12-29T11:53:04;100796.50;;;12.39;59.17
62600;BME280;48671;48.922;2.346;2022-12-29T11:55:31;100808.88;;;12.54;60.33
62600;BME280;48671;48.922;2.346;2022-12-29T11:57:59;100815.50;;;12.61;59.92
62600;BME280;48671;48.922;2.346;2022-12-29T12:00:28;100814.09;;;12.54;58.83
62600;BME280;48671;48.922;2.346;2022-12-29T12:03:03;100797.59;;;12.54;58.60
62600;BME280;48671;48.922;2.346;2022-12-29T12:05:39;100799.34;;;12.91;59.36
62600;BME280;48671;48.922;2.346;2022-12-29T12:08:31;100796.41;;;13.35;56.74
62600;BME280;48671;48.922;2.346;2022-12-29T12:11:09;100782.97;;;13.60;55.33
62600;BME280;48671;48.922;2.346;2022-12-29T12:13:47;100783.50;;;13.84;57.05
62600;BME280;48671;48.922;2.346;2022-12-29T12:16:19;100786.88;;;13.86;55.87
62600;BME280;48671;48.922;2.346;2022-12-29T12:18:52;100783.97;;;13.75;56.43
62600;BME280;48671;48.922;2.346;2022-12-29T12:21:32;100789.19;;;13.75;57.05
62600;BME280;48671;48.922;2.346;2022-12-29T12:26:55;100787.28;;;13.61;56.09
62600;BME280;48671;48.922;2.346;2022-12-29T12:29:38;100798.88;;;13.73;56.09
62600;BME280;48671;48.922;2.346;2022-12-29T12:32:26;100792.81;;;13.90;56.56
62600;BME280;48671;48.922;2.346;2022-12-29T12:34:55;100787.59;;;13.90;55.90
62600;BME280;48671;48.922;2.346;2022-12-29T12:37:46;100793.66;;;13.73;56.61
62600;BME280;48671;48.922;2.346;2022-12-29T12:46:10;100792.97;;;13.34;56.84
62600;BME280;48671;48.922;2.346;2022-12-29T12:54:45;100777.00;;;13.22;57.46
62600;BME280;48671;48.922;2.346;2022-12-29T13:00:04;100772.28;;;13.11;56.37
62600;BME280;48671;48.922;2.346;2022-12-29T13:05:33;100776.25;;;13.01;56.63
62600;BME280;48671;48.922;2.346;2022-12-29T13:08:23;100791.22;;;12.97;56.60
62600;BME280;48671;48.922;2.346;2022-12-29T13:11:26;100786.28;;;12.91;57.08
62600;BME280;48671;48.922;2.346;2022-12-29T13:17:05;100785.25;;;12.95;56.71
62600;BME280;48671;48.922;2.346;2022-12-29T13:19:56;100789.44;;;12.98;55.29
62600;BME280;48671;48.922;2.346;2022-12-29T13:25:27;100779.25;;;12.93;55.85
62600;BME280;48671;48.922;2.346;2022-12-29T13:28:13;100789.78;;;12.92;56.39
62600;BME280;48671;48.922;2.346;2022-12-29T13:30:57;100788.91;;;12.91;56.42
62600;BME280;48671;48.922;2.346;2022-12-29T13:36:25;100792.59;;;12.87;55.12
62600;BME280;48671;48.922;2.346;2022-12-29T13:44:02;100806.00;;;12.79;55.48
62600;BME280;48671;48.922;2.346;2022-12-29T13:46:40;100787.88;;;12.76;55.51
62600;BME280;48671;48.922;2.346;2022-12-29T13:49:15;100787.63;;;12.81;55.61
62600;BME280;48671;48.922;2.346;2022-12-29T13:51:48;100802.25;;;12.85;54.91
62600;BME280;48671;48.922;2.346;2022-12-29T13:54:25;100792.09;;;12.79;55.28
62600;BME280;48671;48.922;2.346;2022-12-29T14:08:13;100795.19;;;13.06;55.04
62600;BME280;48671;48.922;2.346;2022-12-29T14:10:48;100794.06;;;12.93;55.24
62600;BME280;48671;48.922;2.346;2022-12-29T14:13:38;100799.81;;;12.82;55.53
62600;BME280;48671;48.922;2.346;2022-12-29T14:16:05;100812.22;;;12.77;56.01
62600;BME280;48671;48.922;2.346;2022-12-29T14:18:32;100809.75;;;12.74;55.64
62600;BME280;48671;48.922;2.346;2022-12-29T14:21:20;100824.75;;;12.69;55.22
62600;BME280;48671;48.922;2.346;2022-12-29T14:23:49;100811.09;;;12.63;56.27
62600;BME280;48671;48.922;2.346;2022-12-29T14:26:16;100819.31;;;12.54;55.72
62600;BME280;48671;48.922;2.346;2022-12-29T14:28:47;100817.69;;;12.52;56.47
62600;BME280;48671;48.922;2.346;2022-12-29T14:36:41;100817.19;;;12.44;56.52
62600;BME280;48671;48.922;2.346;2022-12-29T14:39:32;100824.81;;;12.48;56.85
62600;BME280;48671;48.922;2.346;2022-12-29T14:42:00;100811.72;;;12.50;57.02
62600;BME280;48671;48.922;2.346;2022-12-29T14:44:26;100817.41;;;12.58;57.29
62600;BME280;48671;48.922;2.346;2022-12-29T14:46:56;100816.53;;;12.59;56.72
62600;BME280;48671;48.922;2.346;2022-12-29T14:49:25;100815.72;;;12.57;56.88
62600;BME280;48671;48.922;2.346;2022-12-29T14:51:55;100825.09;;;12.61;56.90
62600;BME280;48671;48.922;2.346;2022-12-29T14:54:43;100826.78;;;12.62;57.24
62600;BME280;48671;48.922;2.346;2022-12-29T14:57:19;100825.09;;;12.61;57.32
62600;BME280;48671;48.922;2.346;2022-12-29T14:59:45;100817.50;;;12.56;56.42
62600;BME280;48671;48.922;2.346;2022-12-29T15:02:22;100822.06;;;12.51;56.03
62600;BME280;48671;48.922;2.346;2022-12-29T15:04:48;100818.69;;;12.49;56.45